Prince Albert Glass Field

CYPA | YPA

Prince Albert , Saskatchewan , Canada

Sunday, January 19th, 2020 | 12:20

Weather

CYPA 191800Z 00000KT 15SM FEW002 SCT160 M28/M31 A3062 RMK ST1AC3 ST TR SLP427

Charts

No Charts Available

Gates

No Gates Available

Runways

2 Available

Events

No events for this airport


New event